Fonte Boa, Brazil
Current Conditions -  °F | °C
As of 6:00 PM on Saturday 20 Dec 2014 (Local Time) from SKLT Reporting Station
Overcast Overcast  
Wind Chill: 77°   Ceiling: 8000
Heat Index: 78°   Visibility: 6mi
Dew Point: 77°   Wind: 0mph
Humidity: 100%   Direction: NA
Pressure: 29.69"   Gusts: NA
Location:  2.53°S, 66.02°W
Report Text: SKLT 202200Z 00000KT 9999 SCT020 OVC080 25/25 A2969 RETS
Loading
Personal Weather Stations






























Interactive Weather Map New forecast layout! Learn more

10-Day Weather Forecast

Advertisements
Track Severe Weather on mobile